Time;durP1;ratioP1;P1;durP2;ratioP2;P2;SDS_P1;SDS_P2;PMS_P1;PMS_P2;Temp;Humidity;BMP_temperature;BMP_pressure;BME280_temperature;BME280_humidity;BME280_pressure;Samples;Min_cycle;Max_cycle;Signal;HPM_P1;HPM_P2
2022/11/03 00:02:01;;;;;;;17.17;3.28;;;;;;;17.90;49.41;101438.19;5095197;28;20032;-70
2022/11/03 00:04:27;;;;;;;16.42;2.63;;;;;;;17.45;51.32;101445.88;5094625;28;20434;-71
2022/11/03 00:06:53;;;;;;;12.75;2.47;;;;;;;18.21;49.34;101431.91;5094204;28;20050;-71
2022/11/03 00:09:20;;;;;;;14.93;3.08;;;;;;;18.18;48.86;101426.97;5092921;28;20044;-70
2022/11/03 00:11:49;;;;;;;30.13;3.70;;;;;;;17.71;50.28;101434.19;5094297;28;20142;-71
2022/11/03 00:14:15;;;;;;;14.80;2.50;;;;;;;17.74;50.07;101447.28;5081420;28;20123;-70
2022/11/03 00:16:41;;;;;;;16.70;2.85;;;;;;;18.36;48.40;101432.00;5074330;28;20366;-71
2022/11/03 00:19:08;;;;;;;16.95;3.28;;;;;;;17.70;50.29;101443.44;5073900;28;20515;-71
2022/11/03 00:21:33;;;;;;;17.90;3.33;;;;;;;18.01;49.53;101433.63;5074154;28;20032;-72
2022/11/03 00:24:01;;;;;;;21.95;3.45;;;;;;;17.95;49.88;101426.50;5072498;28;20047;-71
2022/11/03 00:26:28;;;;;;;18.73;3.35;;;;;;;17.53;50.96;101424.50;5072509;28;20032;-72
2022/11/03 00:28:56;;;;;;;12.80;2.38;;;;;;;17.62;50.70;101413.16;5088833;28;20126;-72
2022/11/03 00:31:23;;;;;;;16.67;3.28;;;;;;;18.05;49.50;101421.97;5094235;28;20085;-72
2022/11/03 00:33:50;;;;;;;13.60;2.35;;;;;;;18.79;47.35;101408.31;5094081;28;20038;-70
2022/11/03 00:36:35;;;;;;;17.13;3.03;;;;;;;18.30;48.72;101402.28;5094211;28;20024;-71
2022/11/03 00:39:02;;;;;;;21.65;2.20;;;;;;;17.05;51.86;101399.22;5091199;28;20055;-69
2022/11/03 00:41:28;;;;;;;20.33;2.72;;;;;;;18.10;49.68;101385.84;5073701;28;20534;-71
2022/11/03 00:43:53;;;;;;;16.00;3.00;;;;;;;17.62;51.12;101370.50;5074174;28;20033;-70
2022/11/03 00:46:20;;;;;;;22.15;3.40;;;;;;;17.57;51.38;101381.34;5073546;28;20029;-70
2022/11/03 00:48:46;;;;;;;15.60;3.78;;;;;;;18.01;50.32;101376.50;5073569;28;20127;-70
2022/11/03 00:51:11;;;;;;;11.95;2.85;;;;;;;18.21;49.54;101365.78;5088391;28;20127;-72
2022/11/03 00:53:57;;;;;;;11.88;2.65;;;;;;;17.23;52.37;101369.84;5093529;28;20146;-69
2022/11/03 00:56:25;;;;;;;16.52;2.47;;;;;;;17.34;52.10;101362.59;5094384;28;20032;-71
2022/11/03 00:58:51;;;;;;;21.05;3.05;;;;;;;17.40;52.51;101361.56;5093533;28;20128;-70
2022/11/03 01:01:19;;;;;;;15.48;3.28;;;;;;;18.08;50.34;101356.16;5093683;28;20062;-71
2022/11/03 01:06:52;;;;;;;20.35;3.47;;;;;;;17.40;52.04;101350.69;5093647;28;20085;-70
2022/11/03 01:09:33;;;;;;;22.23;2.83;;;;;;;17.38;52.34;101345.53;5084231;28;20607;-71
2022/11/03 01:12:13;;;;;;;14.48;3.40;;;;;;;17.33;52.20;101336.50;5072799;28;20090;-71
2022/11/03 01:14:43;;;;;;;23.33;2.95;;;;;;;17.37;52.05;101338.47;5073432;28;20113;-69
2022/11/03 01:17:14;;;;;;;19.02;4.15;;;;;;;17.26;53.04;101338.59;5073565;28;20020;-70
2022/11/03 01:19:40;;;;;;;14.05;2.58;;;;;;;17.03;53.75;101341.63;5072164;28;20230;-71
2022/11/03 01:22:05;;;;;;;24.08;3.08;;;;;;;17.08;53.93;101341.69;5071619;28;20055;-71
2022/11/03 01:24:31;;;;;;;16.50;4.45;;;;;;;16.85;54.61;101342.78;5081073;28;20036;-70
2022/11/03 01:26:56;;;;;;;18.58;3.50;;;;;;;17.62;51.82;101332.44;5092990;28;20024;-70
2022/11/03 01:29:22;;;;;;;23.23;3.10;;;;;;;17.29;52.96;101338.09;5093470;28;20055;-69
2022/11/03 01:31:48;;;;;;;17.17;3.67;;;;;;;16.96;53.74;101330.97;5091109;28;20499;-70
2022/11/03 01:34:20;;;;;;;31.65;3.33;;;;;;;17.25;53.45;101339.69;5092950;28;20036;-70
2022/11/03 01:36:46;;;;;;;16.88;2.55;;;;;;;16.83;54.00;101330.53;5092735;28;20521;-70
2022/11/03 01:39:14;;;;;;;15.88;2.55;;;;;;;17.55;52.36;101323.72;5088807;28;20036;-71
2022/11/03 01:41:41;;;;;;;16.13;2.83;;;;;;;17.33;52.50;101326.47;5072526;28;20047;-71
2022/11/03 01:44:06;;;;;;;22.88;3.08;;;;;;;17.50;52.12;101324.47;5073060;28;20032;-70
2022/11/03 01:46:40;;;;;;;19.48;4.18;;;;;;;17.47;52.95;101319.50;5072522;28;20033;-72
2022/11/03 01:49:15;;;;;;;18.52;2.47;;;;;;;17.42;52.84;101313.22;5072326;28;20036;-71
2022/11/03 01:51:46;;;;;;;14.82;2.75;;;;;;;18.08;50.69;101306.41;5072354;28;20154;-70
2022/11/03 01:54:17;;;;;;;21.90;3.63;;;;;;;17.70;51.66;101306.69;5072059;28;20058;-70
2022/11/03 01:56:45;;;;;;;;;;;;;;;17.73;52.01;101304.25;5074481;28;20020;-70
2022/11/03 01:59:13;;;;;;;17.27;3.00;;;;;;;17.13;53.70;101293.69;5093178;28;19923;-71
2022/11/03 02:01:39;;;;;;;17.75;3.00;;;;;;;17.54;52.36;101292.16;5092443;28;20518;-70
2022/11/03 02:04:21;;;;;;;18.92;2.55;;;;;;;17.14;53.55;101280.94;5092390;28;20119;-71
2022/11/03 02:06:53;;;;;;;11.65;2.67;;;;;;;17.93;51.44;101282.66;5083445;28;20029;-71
2022/11/03 02:09:20;;;;;;;14.85;2.80;;;;;;;17.98;51.26;101262.84;5071923;28;20542;-70
2022/11/03 02:14:29;;;;;;;14.98;2.97;;;;;;;17.62;52.87;101264.50;5088140;28;20519;-70
2022/11/03 02:16:59;;;;;;;15.82;3.97;;;;;;;17.99;51.40;101262.56;5092668;28;20046;-71
2022/11/03 02:19:38;;;;;;;14.23;2.53;;;;;;;18.27;50.72;101256.72;5092025;28;20054;-70
2022/11/03 02:22:42;;;;;;;12.57;2.20;;;;;;;17.68;52.19;101263.47;5091993;28;20043;-71
2022/11/03 02:25:32;;;;;;;13.00;2.30;;;;;;;16.98;54.59;101250.06;5091787;28;20051;-71
2022/11/03 02:27:59;;;;;;;11.13;2.40;;;;;;;17.57;52.02;101247.34;5091955;28;20051;-71
2022/11/03 02:30:32;;;;;;;19.90;3.85;;;;;;;17.61;52.35;101249.25;5092195;28;20036;-71
2022/11/03 02:33:10;;;;;;;10.35;2.25;;;;;;;17.01;54.82;101246.84;5091852;28;20471;-71
2022/11/03 02:35:57;;;;;;;14.60;2.83;;;;;;;17.18;53.84;101241.28;5092061;28;20044;-69
2022/11/03 02:38:27;;;;;;;20.45;3.13;;;;;;;17.39;53.55;101234.97;5092373;28;20028;-71
2022/11/03 02:40:57;;;;;;;18.38;2.90;;;;;;;17.01;53.79;101235.16;5091771;28;20411;-70
2022/11/03 02:43:24;;;;;;;22.67;3.95;;;;;;;17.26;53.78;101233.50;5091844;28;20123;-71
2022/11/03 02:45:51;;;;;;;19.13;3.95;;;;;;;17.21;53.78;101227.22;5092019;28;20047;-71
2022/11/03 02:48:18;;;;;;;21.95;3.38;;;;;;;16.73;54.91;101238.16;5090453;28;20495;-72
2022/11/03 02:50:45;;;;;;;12.10;2.85;;;;;;;16.85;55.08;101236.09;5091569;28;20028;-72
2022/11/03 02:53:12;;;;;;;15.27;2.63;;;;;;;16.23;56.57;101227.53;5092377;28;20024;-70
2022/11/03 02:55:59;;;;;;;17.23;3.90;;;;;;;17.32;54.03;101223.47;5091398;28;20492;-71
2022/11/03 02:58:37;;;;;;;21.45;3.05;;;;;;;17.02;54.60;101210.47;5091465;28;20578;-71
2022/11/03 03:01:13;;;;;;;13.20;3.08;;;;;;;16.97;54.43;101218.59;5091891;28;20096;-72
2022/11/03 03:03:54;;;;;;;15.85;3.25;;;;;;;17.26;53.39;101216.38;5091836;28;20384;-72
2022/11/03 03:06:41;;;;;;;;;;;;;;;16.54;55.66;101224.13;5092174;28;20043;-71
2022/11/03 03:09:12;;;;;;;22.23;3.20;;;;;;;16.74;55.44;101212.66;5091330;28;19920;-70
2022/11/03 03:11:41;;;;;;;14.68;2.65;;;;;;;17.66;52.54;101205.00;5091276;28;20042;-71
2022/11/03 03:14:17;;;;;;;15.95;3.28;;;;;;;17.27;53.23;101207.97;5079318;28;20039;-71
2022/11/03 03:17:04;;;;;;;18.25;3.03;;;;;;;17.47;52.89;101205.38;5076374;28;20032;-72
2022/11/03 03:19:51;;;;;;;16.38;3.90;;;;;;;17.28;53.68;101200.63;5071183;28;20040;-71
2022/11/03 03:22:55;;;;;;;22.55;4.18;;;;;;;17.31;53.39;101190.09;5071457;28;20044;-72
2022/11/03 03:25:25;;;;;;;13.82;3.38;;;;;;;16.85;55.10;101196.22;5070797;28;20098;-72
2022/11/03 03:27:59;;;;;;;20.05;2.80;;;;;;;17.09;54.65;101196.69;5071072;28;20044;-71
2022/11/03 03:30:28;;;;;;;15.23;3.47;;;;;;;16.68;56.39;101193.63;5071523;28;20039;-72
2022/11/03 03:32:56;;;;;;;21.10;3.03;;;;;;;17.30;53.44;101188.44;5071267;28;20036;-70
2022/11/03 03:35:26;;;;;;;11.90;2.67;;;;;;;16.65;55.66;101183.25;5074437;28;20032;-72
2022/11/03 03:37:57;;;;;;;23.83;4.00;;;;;;;16.87;55.05;101190.50;5091589;28;20047;-72
2022/11/03 03:40:33;;;;;;;14.75;3.42;;;;;;;17.07;54.50;101182.53;5091180;28;20437;-72
2022/11/03 03:43:00;;;;;;;13.85;3.97;;;;;;;17.64;52.27;101177.25;5092843;28;20383;-71
2022/11/03 03:45:25;;;;;;;13.82;2.42;;;;;;;17.61;52.59;101175.88;5095163;28;20589;-71
2022/11/03 03:47:51;;;;;;;9.45;2.80;;;;;;;17.24;53.54;101169.63;5095078;28;20108;-72
2022/11/03 03:50:16;;;;;;;11.50;2.53;;;;;;;17.53;53.11;101160.88;5086335;28;20405;-72
2022/11/03 03:52:42;;;;;;;11.90;3.38;;;;;;;17.21;53.85;101164.72;5074683;28;20112;-70
2022/11/03 03:55:16;;;;;;;15.43;2.97;;;;;;;16.84;55.69;101159.28;5074265;28;20041;-72
2022/11/03 03:57:43;;;;;;;19.30;3.17;;;;;;;16.91;55.81;101156.34;5084373;28;20527;-71
2022/11/03 04:00:12;;;;;;;21.33;3.97;;;;;;;16.94;55.24;101151.25;5094850;28;20036;-72
2022/11/03 04:02:37;;;;;;;16.75;3.08;;;;;;;17.15;54.09;101144.88;5093407;28;20051;-71
2022/11/03 04:05:03;;;;;;;12.55;2.95;;;;;;;17.47;54.37;101136.66;5095555;28;20028;-70
2022/11/03 04:07:47;;;;;;;15.20;2.40;;;;;;;17.16;53.83;101140.28;5094311;28;20047;-71
2022/11/03 04:10:14;;;;;;;15.43;3.17;;;;;;;17.57;53.59;101134.03;5083797;28;20042;-70
2022/11/03 04:23:56;;;;;;;11.68;2.40;;;;;;;17.61;53.23;101107.94;5031507;28;20055;-71
2022/11/03 04:26:22;;;;;;;12.80;2.78;;;;;;;17.64;54.04;101103.88;5031679;28;20041;-71
2022/11/03 04:28:49;;;;;;;16.33;2.78;;;;;;;17.51;54.35;101108.72;5031336;28;20037;-72
2022/11/03 04:31:16;;;;;;;19.23;3.38;;;;;;;17.87;53.06;101109.69;5031602;28;20034;-71
2022/11/03 04:33:42;;;;;;;12.15;2.75;;;;;;;17.30;53.93;101106.94;5030959;28;20048;-71
2022/11/03 04:36:14;;;;;;;18.83;4.53;;;;;;;17.75;53.46;101116.44;5031382;28;20059;-70
2022/11/03 04:38:41;;;;;;;16.98;2.55;;;;;;;18.16;52.47;101107.34;5031065;28;20080;-72
2022/11/03 04:41:22;;;;;;;14.50;3.03;;;;;;;17.83;53.27;101105.03;5031383;28;20137;-70
2022/11/03 04:43:48;;;;;;;;;;;;;;;17.80;53.03;101103.69;5031945;28;20119;-71
2022/11/03 04:46:24;;;;;;;19.52;2.92;;;;;;;18.10;51.87;101097.53;5030990;28;19924;-71
2022/11/03 04:48:51;;;;;;;25.85;3.75;;;;;;;17.93;52.78;101103.19;5030950;28;20042;-71
2022/11/03 04:51:21;;;;;;;15.05;3.30;;;;;;;17.93;52.97;101102.34;5031937;28;20037;-71
2022/11/03 04:53:53;;;;;;;12.40;3.10;;;;;;;18.31;51.15;101102.75;5072560;28;20040;-71
2022/11/03 04:56:23;;;;;;;14.00;2.95;;;;;;;18.02;52.11;101098.88;5074092;28;20032;-71
2022/11/03 04:58:50;;;;;;;10.52;1.95;;;;;;;17.97;52.33;101098.00;5087139;28;20036;-72
2022/11/03 05:01:18;;;;;;;22.63;3.17;;;;;;;17.38;54.34;101095.56;5073518;28;20526;-71
2022/11/03 05:03:46;;;;;;;13.18;2.30;;;;;;;18.16;51.63;101099.97;5072965;28;20041;-70
2022/11/03 05:06:18;;;;;;;12.25;2.47;;;;;;;18.07;52.45;101085.28;5073323;28;20040;-72
2022/11/03 05:08:48;;;;;;;16.27;3.20;;;;;;;17.65;54.03;101083.78;5075425;28;20040;-72
2022/11/03 05:11:36;;;;;;;12.63;3.17;;;;;;;17.63;53.64;101083.22;5075539;28;20118;-72
2022/11/03 05:14:25;;;;;;;12.27;2.45;;;;;;;17.70;53.58;101076.47;5073493;28;20049;-72
2022/11/03 05:16:52;;;;;;;18.80;2.50;;;;;;;17.49;53.92;101069.31;5072818;28;20438;-72
2022/11/03 05:19:37;;;;;;;15.15;3.45;;;;;;;17.68;53.64;101067.75;5072894;28;20032;-71
2022/11/03 05:22:04;;;;;;;9.75;2.60;;;;;;;17.82;53.48;101068.91;5072976;28;20551;-71
2022/11/03 05:24:30;;;;;;;17.38;2.80;;;;;;;17.83;53.63;101059.63;5072804;28;20417;-71
2022/11/03 05:26:57;;;;;;;18.00;4.03;;;;;;;17.25;55.17;101060.75;5070787;28;20037;-71
2022/11/03 05:29:27;;;;;;;12.48;3.53;;;;;;;17.37;54.85;101061.34;5073293;28;20383;-71
2022/11/03 05:31:54;;;;;;;14.20;2.30;;;;;;;17.59;54.13;101058.50;5073304;28;20064;-72
2022/11/03 05:34:29;;;;;;;20.55;3.13;;;;;;;17.95;52.82;101046.63;5071466;28;20507;-72
2022/11/03 05:36:57;;;;;;;21.55;3.70;;;;;;;17.79;53.51;101050.38;5088696;28;20036;-71
2022/11/03 05:39:30;;;;;;;12.43;2.95;;;;;;;17.48;53.64;101051.34;5092668;28;20032;-72
2022/11/03 05:41:58;;;;;;;15.90;3.08;;;;;;;16.60;56.89;101052.97;5087984;28;20044;-70
2022/11/03 05:44:35;;;;;;;16.33;3.40;;;;;;;17.50;54.65;101039.16;5083395;28;20455;-71
2022/11/03 05:47:11;;;;;;;18.35;3.45;;;;;;;17.49;53.92;101039.44;5082964;28;20059;-71
2022/11/03 05:49:36;;;;;;;14.05;2.30;;;;;;;17.80;53.31;101037.63;5082054;28;20047;-71
2022/11/03 05:52:02;;;;;;;10.20;2.72;;;;;;;18.04;53.22;101030.59;5080346;28;20037;-70
2022/11/03 05:54:33;;;;;;;14.18;2.22;;;;;;;17.73;53.79;101028.91;5078864;28;20078;-70
2022/11/03 05:56:58;;;;;;;;;;;;;;;18.01;53.02;101028.41;5081688;28;20044;-70
2022/11/03 05:59:26;;;;;;;13.80;2.28;;;;;;;17.93;52.99;101018.88;5080883;28;19912;-69
2022/11/03 06:01:53;;;;;;;15.40;2.55;;;;;;;17.72;53.28;101014.50;5078514;28;20043;-70
2022/11/03 06:04:25;;;;;;;13.23;2.28;;;;;;;17.78;53.15;101013.41;5075891;28;20033;-70
2022/11/03 06:07:19;;;;;;;22.17;3.63;;;;;;;18.23;51.99;101007.22;5081519;28;20055;-70
2022/11/03 06:09:45;;;;;;;19.42;3.08;;;;;;;17.65;53.62;101010.41;5079920;28;20048;-70
2022/11/03 06:12:16;;;;;;;22.35;3.58;;;;;;;18.13;52.51;101010.75;5075652;28;20120;-70
2022/11/03 06:14:41;;;;;;;9.95;2.20;;;;;;;18.23;52.39;100999.06;5072032;28;20082;-70
2022/11/03 06:17:17;;;;;;;21.73;3.28;;;;;;;18.14;52.18;101003.44;5072550;28;20024;-71
2022/11/03 06:19:48;;;;;;;10.55;1.80;;;;;;;17.59;54.05;100993.28;5071785;28;20423;-69
2022/11/03 06:22:22;;;;;;;14.40;2.92;;;;;;;18.24;51.96;101008.84;5075562;28;20098;-70
2022/11/03 06:24:48;;;;;;;13.98;2.33;;;;;;;17.99;53.12;101001.50;5071838;28;20514;-71
2022/11/03 06:27:15;;;;;;;16.27;4.50;;;;;;;17.78;53.67;101002.56;5076996;28;20128;-70
2022/11/03 06:29:46;;;;;;;15.10;3.10;;;;;;;17.92;52.84;100992.78;5072351;28;20048;-72
2022/11/03 06:32:12;;;;;;;16.65;2.80;;;;;;;17.54;54.28;100988.63;5072213;28;20116;-71
2022/11/03 06:34:46;;;;;;;15.82;3.17;;;;;;;17.50;54.37;100982.09;5076760;28;20108;-70
2022/11/03 06:37:18;;;;;;;13.48;2.63;;;;;;;17.57;53.69;100986.47;5089738;28;20032;-72
2022/11/03 06:39:44;;;;;;;11.77;2.45;;;;;;;17.99;53.22;100989.78;5091567;28;20499;-71
2022/11/03 06:42:12;;;;;;;19.23;2.35;;;;;;;17.57;54.45;100973.69;5091507;28;20115;-71
2022/11/03 06:44:40;;;;;;;10.55;2.55;;;;;;;17.16;55.98;100982.75;5091781;28;20020;-71
2022/11/03 06:47:18;;;;;;;15.05;2.97;;;;;;;17.79;54.25;100978.91;5091992;28;20028;-71
2022/11/03 06:49:43;;;;;;;12.48;2.60;;;;;;;17.79;53.15;100976.97;5091441;28;20119;-70
2022/11/03 06:52:26;;;;;;;19.77;2.55;;;;;;;17.77;53.80;100972.94;5085991;28;20564;-70
2022/11/03 06:55:00;;;;;;;17.00;3.90;;;;;;;17.85;54.30;100973.19;5082103;28;20042;-70
2022/11/03 06:57:26;;;;;;;29.25;2.90;;;;;;;17.88;53.24;100972.66;5078982;28;20032;-70
2022/11/03 06:59:54;;;;;;;13.35;2.80;;;;;;;17.71;54.55;100971.28;5071537;28;20395;-69
2022/11/03 07:02:53;;;;;;;13.75;4.28;;;;;;;17.53;54.86;100978.03;5083289;28;20465;-70
2022/11/03 07:05:24;;;;;;;13.70;2.63;;;;;;;18.12;53.55;100964.81;5091659;28;20079;-71
2022/11/03 07:07:55;;;;;;;16.23;3.08;;;;;;;18.07;53.65;100970.22;5091350;28;20102;-70
2022/11/03 07:10:24;;;;;;;20.23;3.70;;;;;;;18.13;53.03;100966.41;5091587;28;20040;-70
2022/11/03 07:12:49;;;;;;;21.38;3.60;;;;;;;17.92;54.13;100957.44;5087939;28;20115;-72
2022/11/03 07:15:25;;;;;;;12.15;2.30;;;;;;;18.25;52.90;100959.63;5080516;28;20112;-71
2022/11/03 07:17:51;;;;;;;15.60;3.55;;;;;;;17.98;54.28;100955.53;5082580;28;20051;-72
2022/11/03 07:20:16;;;;;;;14.23;2.67;;;;;;;17.92;54.73;100951.19;5076751;28;20047;-70
2022/11/03 07:22:45;;;;;;;11.68;2.10;;;;;;;17.73;54.79;100945.44;5075550;28;20484;-71
2022/11/03 07:25:20;;;;;;;8.75;2.50;;;;;;;18.08;54.16;100947.38;5074918;28;20063;-72
2022/11/03 07:27:49;;;;;;;11.30;2.58;;;;;;;17.65;55.36;100959.56;5074877;28;20115;-71
2022/11/03 07:30:20;;;;;;;19.70;3.00;;;;;;;18.17;54.40;100956.63;5074794;28;20040;-71
2022/11/03 07:32:48;;;;;;;16.67;3.13;;;;;;;17.74;55.26;100947.09;5074706;28;20081;-72
2022/11/03 07:35:16;;;;;;;14.88;2.28;;;;;;;18.26;54.06;100944.91;5077210;28;20070;-71
2022/11/03 07:37:43;;;;;;;16.02;2.45;;;;;;;17.84;55.55;100952.53;5095222;28;20123;-72
2022/11/03 07:40:22;;;;;;;15.68;2.92;;;;;;;18.58;53.64;100952.81;5094980;28;20169;-72
2022/11/03 07:42:48;;;;;;;14.30;2.70;;;;;;;18.34;53.52;100941.66;5094789;28;20032;-72
2022/11/03 07:45:35;;;;;;;15.30;2.78;;;;;;;17.96;55.22;100939.50;5095141;28;20035;-71
2022/11/03 07:48:17;;;;;;;14.10;3.08;;;;;;;18.50;53.61;100944.38;5094829;28;20040;-71
2022/11/03 07:50:42;;;;;;;18.25;2.90;;;;;;;18.44;53.85;100946.28;5094930;28;20035;-74
2022/11/03 07:53:16;;;;;;;17.83;2.67;;;;;;;17.76;55.58;100942.19;5095230;28;20020;-73
2022/11/03 07:55:44;;;;;;;15.70;3.15;;;;;;;18.29;54.16;100936.22;5079056;28;20032;-72
2022/11/03 07:58:28;;;;;;;8.88;2.63;;;;;;;18.22;54.63;100940.31;5087964;28;20497;-72
2022/11/03 08:00:57;;;;;;;14.05;2.17;;;;;;;17.62;56.78;100940.25;5094858;28;20047;-71
2022/11/03 08:03:45;;;;;;;12.53;2.77;;;;;;;17.82;55.71;100927.53;5094652;28;20032;-71
2022/11/03 08:06:10;;;;;;;12.32;3.03;;;;;;;18.01;55.31;100939.50;5094684;28;20561;-70
2022/11/03 08:08:36;;;;;;;18.42;2.78;;;;;;;18.22;55.07;100932.94;5094376;28;20072;-73
2022/11/03 08:11:01;;;;;;;15.00;3.08;;;;;;;18.19;55.38;100932.69;5094754;28;20028;-73
2022/11/03 08:13:26;;;;;;;16.27;3.17;;;;;;;18.14;55.49;100936.22;5094244;28;20567;-71
2022/11/03 08:15:52;;;;;;;9.98;2.58;;;;;;;17.64;56.96;100928.03;5094479;28;20189;-71
2022/11/03 08:18:17;;;;;;;15.38;3.17;;;;;;;17.60;57.82;100923.41;5094172;28;20028;-71
2022/11/03 08:20:43;;;;;;;12.43;2.85;;;;;;;18.13;55.80;100929.16;5094317;28;20471;-71
2022/11/03 08:23:10;;;;;;;18.27;3.03;;;;;;;18.68;54.50;100913.84;5095134;28;20065;-70
2022/11/03 08:25:35;;;;;;;12.07;3.08;;;;;;;18.08;55.59;100909.31;5092792;28;20449;-70
2022/11/03 08:28:02;;;;;;;15.10;3.28;;;;;;;18.98;53.68;100908.31;5093787;28;20036;-71
2022/11/03 08:30:27;;;;;;;11.07;2.50;;;;;;;18.64;54.48;100908.16;5091657;28;20032;-71
2022/11/03 08:32:52;;;;;;;15.90;4.30;;;;;;;18.49;55.43;100901.94;5085272;28;20032;-69
2022/11/03 08:35:18;;;;;;;8.32;2.15;;;;;;;18.68;54.73;100905.69;5084785;28;20028;-71
2022/11/03 08:37:43;;;;;;;23.63;3.00;;;;;;;18.60;54.65;100906.25;5082907;28;20024;-71
2022/11/03 08:40:09;;;;;;;13.23;2.92;;;;;;;18.51;54.29;100905.19;5084345;28;20028;-72
2022/11/03 08:42:34;;;;;;;19.85;4.30;;;;;;;18.88;53.78;100900.19;5082747;28;20531;-71
2022/11/03 08:45:00;;;;;;;14.10;3.00;;;;;;;18.32;55.95;100904.91;5083151;28;20490;-71
2022/11/03 08:47:25;;;;;;;20.05;4.15;;;;;;;18.61;55.54;100905.19;5084617;28;20024;-71
2022/11/03 08:49:51;;;;;;;10.63;3.08;;;;;;;19.25;53.66;100898.66;5079100;28;20043;-68
2022/11/03 08:52:16;;;;;;;15.68;3.00;;;;;;;18.81;54.66;100896.94;5078630;28;20036;-70
2022/11/03 08:54:41;;;;;;;17.90;3.38;;;;;;;18.27;56.67;100899.50;5089083;28;20127;-69
2022/11/03 08:57:07;;;;;;;16.52;3.80;;;;;;;19.02;54.40;100885.69;5082013;28;20113;-70
2022/11/03 08:59:32;;;;;;;11.77;3.00;;;;;;;19.20;54.07;100881.50;5070813;28;20024;-69
2022/11/03 09:01:57;;;;;;;13.73;2.85;;;;;;;19.10;53.73;100889.75;5070658;28;20032;-70
2022/11/03 09:04:23;;;;;;;15.48;2.97;;;;;;;19.35;53.43;100876.00;5076910;28;20076;-70
2022/11/03 09:06:48;;;;;;;13.32;2.75;;;;;;;19.21;53.68;100874.97;5091386;28;20040;-69
2022/11/03 09:09:14;;;;;;;12.48;2.40;;;;;;;18.66;54.70;100869.75;5088591;28;20040;-69
2022/11/03 09:11:40;;;;;;;16.13;3.75;;;;;;;19.82;52.02;100862.56;5082241;28;20037;-69
2022/11/03 09:14:05;;;;;;;13.68;3.38;;;;;;;19.33;53.37;100856.38;5082925;28;20019;-69
2022/11/03 09:16:31;;;;;;;12.50;3.22;;;;;;;19.28;53.50;100856.41;5083620;28;20035;-69
2022/11/03 09:18:56;;;;;;;12.93;3.20;;;;;;;19.99;51.39;100841.13;5080826;28;20051;-71
2022/11/03 09:21:22;;;;;;;11.15;2.95;;;;;;;19.25;53.31;100835.16;5082597;28;20040;-70
2022/11/03 09:23:47;;;;;;;12.90;2.80;;;;;;;19.79;52.14;100827.66;5083984;28;20048;-69
2022/11/03 09:26:12;;;;;;;11.63;2.20;;;;;;;19.66;52.47;100816.59;5080227;28;20021;-69
2022/11/03 09:28:38;;;;;;;15.07;2.50;;;;;;;20.01;50.95;100811.66;5082828;28;20036;-71
2022/11/03 09:31:03;;;;;;;11.00;2.47;;;;;;;19.66;52.38;100801.06;5093002;28;20032;-69
2022/11/03 09:33:28;;;;;;;7.28;2.42;;;;;;;19.92;51.80;100794.28;5092575;28;20043;-69
2022/11/03 09:35:54;;;;;;;17.05;3.13;;;;;;;20.30;50.54;100792.56;5089141;28;20036;-69
2022/11/03 09:38:19;;;;;;;10.95;1.83;;;;;;;19.98;50.62;100801.31;5090220;28;20043;-71
2022/11/03 09:40:45;;;;;;;11.70;2.85;;;;;;;20.39;50.17;100793.53;5091915;28;20097;-71
2022/11/03 09:43:10;;;;;;;15.75;2.97;;;;;;;20.58;49.90;100780.72;5092488;28;20375;-72
2022/11/03 09:45:37;;;;;;;17.65;3.28;;;;;;;20.21;50.20;100785.28;5092781;28;20040;-70
2022/11/03 09:48:03;;;;;;;16.50;4.15;;;;;;;20.12;50.25;100777.72;5078110;28;20506;-70
2022/11/03 09:50:30;;;;;;;11.48;3.70;;;;;;;20.73;48.29;100766.88;5082399;28;20036;-71
2022/11/03 09:52:56;;;;;;;15.10;3.10;;;;;;;20.40;49.97;100761.59;5093299;28;20417;-74
2022/11/03 09:55:26;;;;;;;13.68;2.83;;;;;;;20.20;50.07;100754.47;5092251;28;20052;-72
2022/11/03 09:57:54;;;;;;;11.18;3.42;;;;;;;20.13;50.35;100748.50;5092185;28;20036;-71
2022/11/03 10:00:21;;;;;;;17.15;3.17;;;;;;;20.27;49.86;100746.72;5092547;28;20040;-72
2022/11/03 10:02:47;;;;;;;17.25;3.97;;;;;;;19.85;50.44;100738.47;5086383;28;20035;-72
2022/11/03 10:05:17;;;;;;;14.50;3.33;;;;;;;20.12;49.61;100730.50;5087490;28;20028;-72
2022/11/03 10:07:44;;;;;;;15.52;2.50;;;;;;;19.34;51.49;100721.75;5090510;28;20046;-71
2022/11/03 10:10:17;;;;;;;16.98;3.97;;;;;;;20.42;48.87;100716.50;5075911;28;20051;-71
2022/11/03 10:12:43;;;;;;;17.80;3.83;;;;;;;20.49;48.46;100716.16;5071574;28;20037;-74
2022/11/03 10:15:14;;;;;;;13.20;2.30;;;;;;;20.89;47.71;100708.19;5076994;28;20069;-72
2022/11/03 10:17:41;;;;;;;12.63;4.07;;;;;;;20.41;49.22;100706.69;5082733;28;20375;-73
2022/11/03 10:20:15;;;;;;;11.68;2.53;;;;;;;20.31;49.30;100698.63;5081310;28;20484;-72
2022/11/03 10:22:42;;;;;;;12.63;2.22;;;;;;;20.03;49.36;100699.50;5080321;28;20451;-71
2022/11/03 10:25:32;;;;;;;10.48;2.50;;;;;;;20.84;47.62;100691.06;5081627;28;20111;-71
2022/11/03 10:28:21;;;;;;;12.48;3.03;;;;;;;20.15;49.20;100670.72;5079948;28;20044;-71
2022/11/03 10:30:48;;;;;;;13.70;2.72;;;;;;;20.37;48.89;100663.91;5080180;28;20056;-72
2022/11/03 10:33:26;;;;;;;13.30;2.65;;;;;;;20.92;47.93;100663.06;5082777;28;20024;-71
2022/11/03 10:35:51;;;;;;;16.00;2.40;;;;;;;20.80;47.71;100669.00;5081748;28;20029;-71
2022/11/03 10:38:26;;;;;;;10.50;2.65;;;;;;;20.46;48.56;100660.22;5081162;28;20027;-73
2022/11/03 10:40:52;;;;;;;10.85;2.83;;;;;;;21.06;47.41;100661.22;5080860;28;20044;-72
2022/11/03 10:43:17;;;;;;;18.52;2.60;;;;;;;20.14;48.73;100651.91;5079289;28;20028;-70
2022/11/03 10:45:43;;;;;;;17.88;2.80;;;;;;;20.50;48.67;100653.06;5081198;28;20059;-71
2022/11/03 10:48:09;;;;;;;12.48;2.63;;;;;;;20.66;48.42;100642.72;5078834;28;20035;-71
2022/11/03 10:50:35;;;;;;;10.10;2.55;;;;;;;21.05;47.25;100626.00;5080992;28;20456;-70
2022/11/03 10:53:02;;;;;;;12.80;2.88;;;;;;;20.61;47.97;100638.16;5081605;28;20016;-72
2022/11/03 10:55:27;;;;;;;10.57;2.97;;;;;;;21.18;46.41;100636.16;5079356;28;20043;-71
2022/11/03 10:57:54;;;;;;;15.07;2.67;;;;;;;21.14;46.58;100635.13;5078015;28;20024;-70
2022/11/03 11:00:19;;;;;;;9.55;2.50;;;;;;;21.52;45.70;100629.22;5081097;28;20520;-73
2022/11/03 11:02:47;;;;;;;8.65;2.10;;;;;;;21.36;45.94;100616.16;5079109;28;20028;-71
2022/11/03 11:05:17;;;;;;;12.20;2.17;;;;;;;21.07;46.57;100618.34;5080240;28;20059;-71
2022/11/03 11:07:44;;;;;;;9.27;1.80;;;;;;;20.63;47.96;100611.38;5080944;28;20488;-71
2022/11/03 11:10:18;;;;;;;9.05;2.20;;;;;;;21.14;46.08;100596.88;5079281;28;20036;-71
2022/11/03 11:13:17;;;;;;;10.27;2.40;;;;;;;21.03;46.37;100595.44;5078425;28;20028;-71
2022/11/03 11:15:46;;;;;;;7.70;2.13;;;;;;;21.39;45.47;100582.72;5081064;28;20067;-72
2022/11/03 11:18:26;;;;;;;12.13;2.05;;;;;;;21.76;44.83;100574.31;5079874;28;20028;-71
2022/11/03 11:20:52;;;;;;;11.25;2.35;;;;;;;20.90;46.03;100570.50;5080093;28;20102;-72
2022/11/03 11:23:26;;;;;;;5.85;2.55;;;;;;;20.12;47.74;100569.53;5087822;28;20035;-73
2022/11/03 11:26:13;;;;;;;13.93;2.33;;;;;;;20.80;46.43;100564.38;5090390;28;20491;-71
2022/11/03 11:29:05;;;;;;;9.82;2.08;;;;;;;21.17;45.98;100568.97;5080723;28;20033;-72
2022/11/03 11:31:31;;;;;;;9.93;2.78;;;;;;;21.20;45.25;100558.22;5070038;28;20040;-70
2022/11/03 11:34:09;;;;;;;7.80;1.60;;;;;;;21.79;44.15;100549.09;5069894;28;20484;-72
2022/11/03 11:36:54;;;;;;;6.80;2.35;;;;;;;21.57;44.52;100549.84;5070203;28;20036;-70
2022/11/03 11:39:23;;;;;;;8.70;2.20;;;;;;;21.71;43.61;100547.09;4990602;28;20136;-73
2022/11/03 11:42:13;;;;;;;8.07;2.20;;;;;;;20.92;45.57;100540.13;5001460;28;20405;-71
2022/11/03 11:44:39;;;;;;;6.32;1.80;;;;;;;21.83;43.61;100540.00;5004142;28;20046;-70
2022/11/03 11:47:44;;;;;;;10.07;1.80;;;;;;;21.45;44.01;100538.59;4997925;28;20043;-69
2022/11/03 11:50:22;;;;;;;9.57;2.30;;;;;;;21.84;43.29;100522.47;4913984;29;20508;-71
2022/11/03 11:53:01;;;;;;;10.35;2.13;;;;;;;22.28;42.93;100529.13;4926133;29;20048;-71